createdAt,value
2023-01-08T00:00:22.077Z,33.39
2023-01-08T00:00:54.466Z,33.68
2023-01-08T00:01:29.366Z,33.77
2023-01-08T00:02:01.782Z,33.59
2023-01-08T00:02:34.063Z,33.45
2023-01-08T00:03:09.018Z,33.54
2023-01-08T00:03:41.611Z,33.63
2023-01-08T00:04:18.069Z,33.63
2023-01-08T00:04:50.350Z,33.57
2023-01-08T00:05:22.592Z,33.35
2023-01-08T00:05:57.416Z,33.27
2023-01-08T00:06:29.670Z,33.29
2023-01-08T00:07:01.896Z,33.46
2023-01-08T00:07:37.131Z,33.46
2023-01-08T00:08:09.878Z,33.50
2023-01-08T00:08:42.229Z,33.13
2023-01-08T00:09:19.703Z,33.52
2023-01-08T00:09:52.366Z,33.11
2023-01-08T00:10:24.594Z,33.49
2023-01-08T00:10:59.748Z,33.16
2023-01-08T00:11:31.989Z,33.50
2023-01-08T00:12:07.426Z,33.55
2023-01-08T00:12:39.710Z,33.23
2023-01-08T00:13:11.927Z,33.46
2023-01-08T00:13:46.821Z,33.17
2023-01-08T00:14:19.058Z,33.21
2023-01-08T00:14:51.299Z,33.18
2023-01-08T00:15:26.123Z,33.38
2023-01-08T00:16:03.358Z,33.27
2023-01-08T00:16:38.289Z,33.01
2023-01-08T00:17:10.536Z,33.05
2023-01-08T00:17:45.362Z,33.24
2023-01-08T00:18:17.581Z,33.57
2023-01-08T00:18:49.804Z,33.33
2023-01-08T00:19:24.892Z,33.40
2023-01-08T00:19:57.141Z,33.79
2023-01-08T00:20:29.565Z,33.57
2023-01-08T00:21:04.412Z,33.44
2023-01-08T00:21:36.649Z,33.68
2023-01-08T00:22:08.945Z,33.43
2023-01-08T00:22:43.790Z,33.55
2023-01-08T00:23:17.012Z,33.29
2023-01-08T00:23:49.414Z,33.60
2023-01-08T00:24:26.881Z,33.55
2023-01-08T00:24:59.094Z,33.33
2023-01-08T00:25:31.317Z,33.56
2023-01-08T00:26:06.616Z,33.55
2023-01-08T00:26:38.855Z,33.40
2023-01-08T00:27:11.146Z,33.43
2023-01-08T00:27:46.095Z,33.02
2023-01-08T00:28:18.462Z,33.42
2023-01-08T00:28:53.312Z,33.30
2023-01-08T00:29:25.546Z,33.06
2023-01-08T00:29:57.778Z,33.38
2023-01-08T00:30:32.929Z,33.28
2023-01-08T00:31:05.920Z,33.41
2023-01-08T00:31:38.272Z,33.57
2023-01-08T00:32:13.108Z,33.38
2023-01-08T00:32:45.360Z,33.34
2023-01-08T00:33:17.724Z,33.69
2023-01-08T00:33:52.555Z,33.69
2023-01-08T00:34:24.884Z,33.65
2023-01-08T00:34:57.195Z,33.39
2023-01-08T00:35:32.058Z,33.61
2023-01-08T00:36:07.989Z,33.67
2023-01-08T00:36:40.224Z,33.79
2023-01-08T00:37:15.246Z,33.45
2023-01-08T00:37:49.557Z,33.60
2023-01-08T00:38:25.916Z,33.71
2023-01-08T00:39:01.996Z,33.57
2023-01-08T00:39:36.843Z,33.54
2023-01-08T00:40:10.372Z,33.25
2023-01-08T00:40:45.258Z,33.40
2023-01-08T00:41:18.143Z,33.52
2023-01-08T00:41:50.425Z,33.14
2023-01-08T00:42:25.304Z,33.06
2023-01-08T00:42:57.574Z,33.44
2023-01-08T00:43:32.398Z,33.01
2023-01-08T00:44:04.781Z,33.28
2023-01-08T00:44:37.012Z,33.06
2023-01-08T00:45:12.880Z,34.54
2023-01-08T00:45:45.176Z,37.15
2023-01-08T00:46:17.571Z,38.52
2023-01-08T00:46:52.415Z,39.92
2023-01-08T00:47:24.659Z,38.71
2023-01-08T00:47:56.950Z,38.59
2023-01-08T00:48:33.533Z,37.71
2023-01-08T00:49:05.795Z,37.06
2023-01-08T00:49:38.057Z,37.17
2023-01-08T00:50:13.215Z,36.87
2023-01-08T00:50:45.458Z,36.49
2023-01-08T00:51:17.685Z,36.49
2023-01-08T00:51:52.505Z,36.08
2023-01-08T00:52:24.922Z,35.88
2023-01-08T00:52:57.147Z,35.84
2023-01-08T00:53:32.113Z,35.61
2023-01-08T00:54:04.424Z,35.72
2023-01-08T00:54:41.857Z,35.52
2023-01-08T00:55:14.168Z,35.58
2023-01-08T00:55:46.438Z,35.21
2023-01-08T00:56:21.250Z,35.63
2023-01-08T00:56:55.616Z,35.56
2023-01-08T00:57:27.853Z,35.40
2023-01-08T00:58:02.668Z,35.16
2023-01-08T00:58:35.314Z,35.04
2023-01-08T00:59:07.691Z,35.11
2023-01-08T00:59:42.531Z,34.84
2023-01-08T01:00:16.412Z,34.91
2023-01-08T01:00:48.907Z,34.91
2023-01-08T01:01:23.926Z,34.72
2023-01-08T01:01:56.460Z,34.60
2023-01-08T01:02:28.861Z,34.95
2023-01-08T01:03:03.730Z,35.05
2023-01-08T01:03:35.998Z,35.17
2023-01-08T01:04:08.304Z,34.82
2023-01-08T01:04:43.236Z,34.78
2023-01-08T01:05:15.735Z,34.85
2023-01-08T01:05:47.996Z,34.77
2023-01-08T01:06:22.859Z,34.98
2023-01-08T01:06:55.118Z,34.53
2023-01-08T01:07:27.376Z,34.63
2023-01-08T01:08:02.223Z,34.57
2023-01-08T01:08:34.827Z,34.56
2023-01-08T01:09:07.071Z,34.57
2023-01-08T01:09:44.593Z,34.18
2023-01-08T01:10:17.722Z,34.32
2023-01-08T01:10:49.950Z,34.12
2023-01-08T01:11:26.527Z,34.53
2023-01-08T01:11:58.754Z,34.16
2023-01-08T01:12:31.025Z,34.35
2023-01-08T01:13:05.870Z,34.48
2023-01-08T01:13:38.123Z,34.48
2023-01-08T01:14:13.009Z,34.08
2023-01-08T01:14:45.228Z,33.97
2023-01-08T01:15:18.365Z,33.87
2023-01-08T01:15:58.260Z,33.89
2023-01-08T01:16:33.128Z,34.11
2023-01-08T01:17:05.528Z,34.14
2023-01-08T01:17:39.256Z,33.99
2023-01-08T01:18:14.302Z,33.96
2023-01-08T01:18:46.637Z,33.83
2023-01-08T01:19:18.884Z,33.82
2023-01-08T01:19:53.933Z,33.74
2023-01-08T01:20:26.235Z,33.84
2023-01-08T01:20:58.489Z,33.65
2023-01-08T01:21:34.491Z,33.97
2023-01-08T01:22:06.900Z,33.94
2023-01-08T01:22:39.577Z,33.52
2023-01-08T01:23:14.397Z,33.65
2023-01-08T01:23:46.635Z,34.04
2023-01-08T01:24:18.933Z,33.67
2023-01-08T01:24:56.380Z,33.74
2023-01-08T01:25:28.604Z,33.94
2023-01-08T01:26:00.822Z,33.77
2023-01-08T01:26:36.252Z,33.84
2023-01-08T01:27:08.496Z,33.77
2023-01-08T01:27:40.739Z,33.85
2023-01-08T01:28:16.340Z,33.52
2023-01-08T01:28:49.527Z,33.40
2023-01-08T01:29:21.777Z,33.83
2023-01-08T01:29:57.074Z,33.87
2023-01-08T01:30:29.299Z,33.82
2023-01-08T01:31:03.898Z,33.55
2023-01-08T01:31:38.782Z,33.60
2023-01-08T01:32:11.016Z,33.59
2023-01-08T01:32:43.234Z,33.81
2023-01-08T01:33:18.116Z,33.43
2023-01-08T01:33:51.117Z,33.60
2023-01-08T01:34:23.397Z,33.45
2023-01-08T01:34:58.225Z,33.82
2023-01-08T01:35:30.497Z,33.50
2023-01-08T01:36:03.385Z,33.77
2023-01-08T01:36:38.231Z,33.50
2023-01-08T01:37:13.197Z,33.40
2023-01-08T01:37:45.548Z,33.65
2023-01-08T01:38:20.448Z,33.28
2023-01-08T01:38:54.393Z,33.25
2023-01-08T01:39:27.001Z,33.34
2023-01-08T01:40:04.661Z,33.35
2023-01-08T01:40:42.123Z,33.77
2023-01-08T01:41:20.338Z,33.59
2023-01-08T01:41:55.269Z,33.43
2023-01-08T01:42:44.103Z,33.48
2023-01-08T01:43:16.404Z,33.55
2023-01-08T01:43:51.312Z,33.33
2023-01-08T01:44:36.172Z,33.31
2023-01-08T01:45:22.585Z,33.52
2023-01-08T01:45:55.134Z,33.72
2023-01-08T01:46:36.242Z,33.58
2023-01-08T01:47:17.135Z,33.35
2023-01-08T01:47:53.810Z,33.53
2023-01-08T01:48:26.349Z,33.21
2023-01-08T01:49:03.169Z,33.49
2023-01-08T01:49:35.503Z,33.54
2023-01-08T01:50:10.857Z,33.53
2023-01-08T01:50:47.610Z,33.47
2023-01-08T01:51:20.280Z,33.51
2023-01-08T01:51:54.712Z,33.38
2023-01-08T01:52:28.376Z,33.26
2023-01-08T01:53:05.546Z,33.65
2023-01-08T01:53:38.134Z,33.57
2023-01-08T01:54:11.570Z,33.38
2023-01-08T01:54:46.418Z,33.65
2023-01-08T01:55:21.365Z,33.63
2023-01-08T01:55:54.059Z,33.67
2023-01-08T01:56:29.399Z,33.42
2023-01-08T01:57:01.628Z,33.23
2023-01-08T01:57:34.499Z,33.26
2023-01-08T01:58:13.651Z,33.73
2023-01-08T01:58:45.863Z,33.71
2023-01-08T01:59:18.184Z,33.48
2023-01-08T01:59:50.463Z,33.28
2023-01-08T02:00:25.842Z,33.42
2023-01-08T02:01:00.216Z,33.55
2023-01-08T02:01:32.989Z,33.45
2023-01-08T02:02:08.023Z,33.45
2023-01-08T02:02:40.365Z,33.48
2023-01-08T02:03:14.624Z,33.76
2023-01-08T02:03:49.576Z,33.63
2023-01-08T02:04:21.869Z,33.34
2023-01-08T02:04:54.160Z,33.55
2023-01-08T02:05:32.690Z,33.54
2023-01-08T02:06:13.536Z,33.21
2023-01-08T02:06:51.379Z,33.42
2023-01-08T02:07:28.061Z,33.40
2023-01-08T02:08:04.306Z,33.37
2023-01-08T02:08:45.597Z,33.03
2023-01-08T02:09:22.514Z,33.29
2023-01-08T02:10:03.752Z,33.33
2023-01-08T02:10:43.685Z,33.08
2023-01-08T02:11:22.528Z,33.43
2023-01-08T02:12:14.405Z,33.30
2023-01-08T02:12:51.819Z,33.53
2023-01-08T02:13:26.970Z,33.36
2023-01-08T02:14:05.018Z,33.74
2023-01-08T02:14:40.910Z,33.75
2023-01-08T02:15:19.868Z,33.43
2023-01-08T02:15:56.374Z,33.74
2023-01-08T02:16:33.725Z,33.46
2023-01-08T02:17:12.146Z,33.76
2023-01-08T02:17:48.719Z,33.67
2023-01-08T02:18:24.448Z,33.73
2023-01-08T02:19:03.791Z,33.84
2023-01-08T02:19:40.984Z,33.40
2023-01-08T02:20:16.746Z,33.86
2023-01-08T02:20:57.290Z,33.61
2023-01-08T02:21:35.787Z,33.71
2023-01-08T02:22:18.617Z,33.25
2023-01-08T02:23:13.771Z,33.13
2023-01-08T02:23:52.174Z,32.96
2023-01-08T02:24:33.278Z,32.99
2023-01-08T02:25:10.723Z,33.27
2023-01-08T02:26:07.824Z,33.40
2023-01-08T02:26:40.904Z,32.88
2023-01-08T02:27:17.455Z,32.96
2023-01-08T02:27:51.759Z,32.92
2023-01-08T02:28:25.490Z,32.96
2023-01-08T02:29:03.387Z,33.39
2023-01-08T02:29:36.087Z,33.40
2023-01-08T02:30:09.455Z,32.96
2023-01-08T02:30:45.059Z,33.11
2023-01-08T02:31:19.024Z,32.92
2023-01-08T02:31:51.548Z,33.33
2023-01-08T02:32:29.489Z,33.28
2023-01-08T02:33:01.723Z,33.24
2023-01-08T02:33:34.022Z,32.87
2023-01-08T02:34:09.128Z,32.67
2023-01-08T02:34:41.368Z,33.01
2023-01-08T02:35:13.770Z,33.03
2023-01-08T02:35:55.110Z,33.13
2023-01-08T02:36:36.595Z,32.72
2023-01-08T02:37:12.019Z,32.85
2023-01-08T02:37:44.361Z,33.04
2023-01-08T02:38:16.858Z,33.01
2023-01-08T02:38:57.857Z,32.90
2023-01-08T02:39:44.755Z,33.38
2023-01-08T02:40:25.975Z,33.44
2023-01-08T02:41:04.889Z,33.65
2023-01-08T02:41:49.438Z,33.63
2023-01-08T02:42:26.136Z,33.62
2023-01-08T02:43:04.791Z,33.30
2023-01-08T02:43:42.893Z,33.52
2023-01-08T02:44:28.305Z,33.25
2023-01-08T02:45:08.984Z,33.24
2023-01-08T02:45:45.218Z,33.11
2023-01-08T02:46:20.147Z,33.28
2023-01-08T02:46:55.507Z,32.92
2023-01-08T02:47:32.354Z,32.99
2023-01-08T02:48:09.552Z,33.34
2023-01-08T02:48:47.359Z,33.32
2023-01-08T02:49:20.148Z,33.38
2023-01-08T02:49:59.799Z,33.09
2023-01-08T02:50:37.856Z,33.34
2023-01-08T02:51:13.744Z,33.33
2023-01-08T02:51:49.547Z,33.13
2023-01-08T02:52:24.460Z,33.22
2023-01-08T02:53:00.367Z,33.11
2023-01-08T02:53:37.518Z,33.20
2023-01-08T02:54:13.248Z,33.51
2023-01-08T02:54:47.301Z,33.52
2023-01-08T02:55:24.151Z,33.19
2023-01-08T02:56:02.143Z,33.05
2023-01-08T02:56:37.324Z,33.13
2023-01-08T02:57:14.691Z,33.26
2023-01-08T02:57:47.610Z,33.16
2023-01-08T02:58:20.545Z,32.99
2023-01-08T02:58:56.409Z,33.35
2023-01-08T02:59:30.302Z,32.93
2023-01-08T03:00:02.689Z,33.00
2023-01-08T03:00:38.077Z,33.40
2023-01-08T03:01:12.452Z,33.30
2023-01-08T03:01:46.148Z,33.44
2023-01-08T03:02:18.593Z,33.14
2023-01-08T03:02:54.926Z,33.43
2023-01-08T03:03:28.372Z,33.23
2023-01-08T03:04:04.460Z,33.65
2023-01-08T03:04:43.060Z,33.45
2023-01-08T03:05:21.878Z,33.99
2023-01-08T03:05:58.991Z,33.74
2023-01-08T03:06:31.854Z,33.82
2023-01-08T03:07:04.364Z,33.37
2023-01-08T03:07:39.250Z,33.71
2023-01-08T03:08:12.420Z,33.34
2023-01-08T03:08:47.118Z,33.28
2023-01-08T03:09:22.233Z,33.35
2023-01-08T03:09:55.599Z,33.55
2023-01-08T03:10:29.759Z,33.07
2023-01-08T03:11:09.056Z,33.44
2023-01-08T03:11:46.241Z,33.48
2023-01-08T03:12:24.404Z,33.34
2023-01-08T03:13:01.922Z,33.40
2023-01-08T03:13:38.985Z,33.06
2023-01-08T03:14:18.686Z,33.03
2023-01-08T03:14:56.335Z,33.39
2023-01-08T03:15:35.051Z,33.53
2023-01-08T03:16:11.502Z,33.38
2023-01-08T03:16:50.101Z,33.67
2023-01-08T03:17:24.334Z,33.41
2023-01-08T03:18:02.001Z,33.60
2023-01-08T03:18:43.221Z,33.45
2023-01-08T03:19:25.170Z,33.39
2023-01-08T03:20:01.136Z,33.43
2023-01-08T03:20:33.880Z,33.60
2023-01-08T03:21:09.700Z,33.79
2023-01-08T03:21:43.270Z,33.38
2023-01-08T03:22:16.507Z,33.67
2023-01-08T03:22:51.189Z,33.57
2023-01-08T03:23:26.370Z,33.66
2023-01-08T03:23:58.707Z,33.57
2023-01-08T03:24:34.161Z,33.31
2023-01-08T03:25:10.316Z,33.38
2023-01-08T03:25:44.204Z,32.95
2023-01-08T03:26:24.843Z,33.01
2023-01-08T03:26:59.167Z,33.39
2023-01-08T03:27:33.166Z,33.50
2023-01-08T03:28:11.742Z,33.22
2023-01-08T03:28:46.844Z,33.67
2023-01-08T03:29:21.094Z,33.86
2023-01-08T03:29:57.512Z,34.01
2023-01-08T03:30:30.706Z,34.13
2023-01-08T03:31:03.324Z,34.01
2023-01-08T03:31:38.227Z,34.18
2023-01-08T03:32:12.943Z,33.79
2023-01-08T03:32:46.187Z,34.10
2023-01-08T03:33:21.829Z,34.13
2023-01-08T03:33:54.872Z,33.87
2023-01-08T03:34:28.889Z,33.74
2023-01-08T03:35:05.324Z,33.66
2023-01-08T03:35:38.525Z,33.50
2023-01-08T03:36:17.003Z,33.77
2023-01-08T03:36:53.624Z,33.44
2023-01-08T03:37:29.571Z,33.34
2023-01-08T03:38:06.042Z,33.38
2023-01-08T03:38:43.581Z,33.67
2023-01-08T03:39:17.850Z,33.38
2023-01-08T03:39:54.408Z,33.58
2023-01-08T03:40:32.314Z,33.70
2023-01-08T03:41:06.971Z,33.38
2023-01-08T03:41:42.044Z,33.73
2023-01-08T03:42:18.367Z,33.33
2023-01-08T03:42:50.735Z,33.25
2023-01-08T03:43:23.023Z,33.35
2023-01-08T03:43:57.893Z,33.50
2023-01-08T03:44:30.116Z,33.33
2023-01-08T03:45:02.671Z,33.38
2023-01-08T03:45:38.678Z,33.54
2023-01-08T03:46:15.216Z,33.67
2023-01-08T03:46:50.234Z,33.79
2023-01-08T03:47:25.940Z,33.41
2023-01-08T03:47:58.826Z,33.81
2023-01-08T03:48:31.828Z,33.60
2023-01-08T03:49:07.403Z,33.75
2023-01-08T03:49:40.708Z,34.13
2023-01-08T03:50:16.789Z,33.64
2023-01-08T03:50:51.856Z,33.95
2023-01-08T03:51:24.129Z,33.62
2023-01-08T03:51:56.795Z,33.65
2023-01-08T03:52:30.381Z,33.57
2023-01-08T03:53:05.270Z,33.72
2023-01-08T03:53:37.608Z,33.68
2023-01-08T03:54:12.366Z,34.20
2023-01-08T03:54:47.203Z,33.85
2023-01-08T03:55:19.504Z,34.03
2023-01-08T03:55:51.750Z,34.08
2023-01-08T03:56:26.627Z,33.82
2023-01-08T03:57:01.540Z,34.15
2023-01-08T03:57:33.782Z,34.14
2023-01-08T03:58:08.670Z,33.70
2023-01-08T03:58:40.894Z,33.81
2023-01-08T03:59:13.906Z,34.03
2023-01-08T03:59:48.856Z,34.12
2023-01-08T04:00:21.245Z,34.16
2023-01-08T04:00:54.196Z,33.89
2023-01-08T04:01:29.165Z,33.99
2023-01-08T04:02:01.525Z,34.16
2023-01-08T04:02:34.014Z,34.05
2023-01-08T04:03:09.717Z,33.77
2023-01-08T04:03:41.952Z,34.02
2023-01-08T04:04:14.253Z,34.04
2023-01-08T04:04:49.235Z,33.79
2023-01-08T04:05:21.500Z,34.07
2023-01-08T04:05:53.718Z,34.13
2023-01-08T04:06:28.743Z,33.89
2023-01-08T04:07:01.033Z,34.23
2023-01-08T04:07:33.252Z,34.19
2023-01-08T04:08:08.383Z,34.08
2023-01-08T04:08:40.604Z,33.94
2023-01-08T04:09:12.835Z,34.04
2023-01-08T04:09:47.662Z,33.84
2023-01-08T04:10:19.894Z,34.08
2023-01-08T04:10:52.129Z,33.84
2023-01-08T04:11:26.975Z,34.11
2023-01-08T04:12:01.804Z,33.89
2023-01-08T04:12:34.122Z,33.80
2023-01-08T04:13:08.952Z,34.01
2023-01-08T04:13:41.173Z,33.81
2023-01-08T04:14:13.636Z,33.71
2023-01-08T04:14:48.450Z,33.98
2023-01-08T04:15:20.985Z,33.79
2023-01-08T04:15:53.259Z,34.06
2023-01-08T04:16:28.122Z,34.21
2023-01-08T04:17:00.373Z,33.89
2023-01-08T04:17:32.598Z,34.25
2023-01-08T04:18:07.559Z,34.27
2023-01-08T04:18:39.783Z,34.04
2023-01-08T04:19:12.776Z,34.06
2023-01-08T04:19:47.583Z,33.92
2023-01-08T04:20:19.801Z,34.38
2023-01-08T04:20:52.054Z,33.98
2023-01-08T04:21:26.887Z,34.16
2023-01-08T04:21:59.120Z,34.52
2023-01-08T04:22:31.347Z,34.30
2023-01-08T04:23:06.176Z,34.44
2023-01-08T04:23:38.425Z,34.28
2023-01-08T04:24:13.976Z,34.58
2023-01-08T04:24:48.822Z,34.01
2023-01-08T04:25:21.069Z,34.09
2023-01-08T04:25:53.359Z,34.11
2023-01-08T04:26:28.198Z,34.25
2023-01-08T04:27:03.061Z,34.37
2023-01-08T04:27:35.286Z,34.38
2023-01-08T04:28:10.129Z,33.79
2023-01-08T04:28:42.410Z,34.05
2023-01-08T04:29:14.759Z,34.16
2023-01-08T04:29:49.569Z,33.89
2023-01-08T04:30:21.799Z,34.01
2023-01-08T04:30:54.074Z,33.99
2023-01-08T04:31:28.952Z,34.15
2023-01-08T04:32:01.272Z,34.51
2023-01-08T04:32:36.094Z,34.10
2023-01-08T04:33:08.318Z,34.05
2023-01-08T04:33:40.546Z,34.40
2023-01-08T04:34:15.615Z,34.15
2023-01-08T04:34:47.866Z,34.40
2023-01-08T04:35:20.092Z,34.35
2023-01-08T04:35:55.053Z,34.30
2023-01-08T04:36:29.866Z,34.51
2023-01-08T04:37:03.228Z,34.43
2023-01-08T04:37:35.462Z,34.00
2023-01-08T04:38:11.641Z,34.33
2023-01-08T04:38:44.013Z,34.04
2023-01-08T04:39:16.381Z,34.28
2023-01-08T04:39:51.217Z,34.30
2023-01-08T04:40:23.524Z,34.18
2023-01-08T04:40:57.592Z,34.16
2023-01-08T04:41:32.423Z,34.13
2023-01-08T04:42:07.258Z,34.42
2023-01-08T04:42:39.507Z,34.29
2023-01-08T04:43:14.333Z,34.15
2023-01-08T04:43:46.787Z,34.19
2023-01-08T04:44:21.635Z,34.33
2023-01-08T04:44:54.160Z,34.52
2023-01-08T04:45:26.427Z,34.11
2023-01-08T04:46:01.688Z,34.21
2023-01-08T04:46:34.371Z,34.65
2023-01-08T04:47:06.720Z,34.57
2023-01-08T04:47:41.580Z,34.21
2023-01-08T04:48:13.809Z,34.50
2023-01-08T04:48:46.030Z,34.24
2023-01-08T04:49:20.945Z,34.38
2023-01-08T04:49:53.158Z,34.03
2023-01-08T04:50:26.823Z,34.48
2023-01-08T04:51:01.689Z,34.59
2023-01-08T04:51:33.926Z,34.53
2023-01-08T04:52:06.175Z,34.45
2023-01-08T04:52:41.012Z,34.47
2023-01-08T04:53:13.258Z,34.79
2023-01-08T04:53:46.441Z,34.58
2023-01-08T04:54:21.338Z,34.89
2023-01-08T04:54:53.558Z,34.96
2023-01-08T04:55:25.825Z,34.74
2023-01-08T04:56:06.388Z,34.94
2023-01-08T04:56:38.632Z,34.68
2023-01-08T04:57:16.143Z,34.82
2023-01-08T04:57:48.387Z,34.64
2023-01-08T04:58:20.830Z,34.38
2023-01-08T04:58:55.655Z,34.52
2023-01-08T04:59:27.895Z,34.75
2023-01-08T05:00:00.192Z,34.42
2023-01-08T05:00:35.089Z,34.69
2023-01-08T05:01:11.518Z,34.77
2023-01-08T05:01:43.956Z,34.31
2023-01-08T05:02:19.131Z,34.76
2023-01-08T05:02:51.563Z,34.52
2023-01-08T05:03:23.911Z,34.46
2023-01-08T05:03:59.963Z,34.58
2023-01-08T05:04:32.233Z,34.75
2023-01-08T05:05:05.299Z,34.79
2023-01-08T05:05:40.521Z,34.98
2023-01-08T05:06:12.747Z,34.50
2023-01-08T05:06:44.976Z,34.91
2023-01-08T05:07:19.810Z,34.96
2023-01-08T05:07:52.154Z,34.50
2023-01-08T05:08:24.383Z,34.54
2023-01-08T05:08:59.258Z,34.80
2023-01-08T05:09:31.519Z,34.52
2023-01-08T05:10:04.605Z,34.73
2023-01-08T05:10:39.468Z,34.40
2023-01-08T05:11:11.699Z,34.42
2023-01-08T05:11:43.922Z,34.35
2023-01-08T05:12:21.683Z,34.60
2023-01-08T05:12:58.634Z,34.42
2023-01-08T05:13:31.249Z,34.82
2023-01-08T05:14:03.506Z,34.88
2023-01-08T05:14:38.323Z,34.99
2023-01-08T05:15:10.955Z,34.83
2023-01-08T05:15:43.255Z,35.24
2023-01-08T05:16:15.882Z,35.30
2023-01-08T05:16:50.727Z,34.98
2023-01-08T05:17:22.982Z,35.23
2023-01-08T05:18:01.926Z,34.95
2023-01-08T05:18:36.748Z,34.86
2023-01-08T05:19:08.984Z,34.91
2023-01-08T05:19:41.325Z,35.16
2023-01-08T05:20:17.921Z,35.30
2023-01-08T05:20:51.154Z,35.35
2023-01-08T05:21:25.981Z,35.06
2023-01-08T05:21:58.230Z,35.24
2023-01-08T05:22:30.455Z,35.29
2023-01-08T05:23:03.027Z,35.39
2023-01-08T05:23:37.895Z,35.45
2023-01-08T05:24:10.126Z,35.14
2023-01-08T05:24:42.332Z,35.54
2023-01-08T05:25:17.323Z,35.53
2023-01-08T05:25:49.550Z,35.38
2023-01-08T05:26:21.838Z,35.16
2023-01-08T05:26:56.720Z,35.21
2023-01-08T05:27:31.536Z,35.47
2023-01-08T05:28:04.114Z,35.42
2023-01-08T05:28:38.994Z,35.56
2023-01-08T05:29:11.311Z,35.42
2023-01-08T05:29:43.528Z,35.11
2023-01-08T05:30:18.768Z,35.24
2023-01-08T05:30:51.134Z,35.41
2023-01-08T05:31:26.138Z,35.47
2023-01-08T05:31:58.399Z,35.16
2023-01-08T05:32:30.628Z,35.15
2023-01-08T05:33:02.872Z,35.40
2023-01-08T05:33:37.711Z,35.51
2023-01-08T05:34:09.972Z,35.33
2023-01-08T05:34:42.227Z,35.58
2023-01-08T05:35:17.092Z,35.21
2023-01-08T05:35:49.343Z,35.50
2023-01-08T05:36:21.565Z,35.67
2023-01-08T05:36:56.397Z,35.54
2023-01-08T05:37:28.653Z,35.72
2023-01-08T05:38:00.938Z,35.68
2023-01-08T05:38:33.241Z,35.56
2023-01-08T05:39:08.069Z,35.74
2023-01-08T05:39:40.316Z,35.57
2023-01-08T05:40:13.053Z,35.91
2023-01-08T05:40:47.991Z,35.79
2023-01-08T05:41:20.277Z,35.96
2023-01-08T05:41:55.110Z,35.59
2023-01-08T05:42:27.347Z,35.91
2023-01-08T05:43:02.633Z,36.04
2023-01-08T05:43:37.733Z,35.66
2023-01-08T05:44:10.671Z,35.69
2023-01-08T05:44:42.927Z,35.58
2023-01-08T05:45:18.282Z,35.47
2023-01-08T05:45:50.521Z,35.35
2023-01-08T05:46:23.002Z,35.55
2023-01-08T05:46:58.123Z,35.50
2023-01-08T05:47:30.989Z,35.47
2023-01-08T05:48:06.140Z,35.52
2023-01-08T05:48:40.995Z,35.59
2023-01-08T05:49:14.298Z,35.47
2023-01-08T05:49:47.332Z,35.51
2023-01-08T05:50:22.179Z,35.85
2023-01-08T05:50:54.425Z,35.64
2023-01-08T05:51:26.660Z,35.52
2023-01-08T05:52:01.508Z,35.49
2023-01-08T05:52:33.770Z,35.71
2023-01-08T05:53:07.468Z,35.51
2023-01-08T05:53:42.316Z,35.61
2023-01-08T05:54:14.643Z,35.59
2023-01-08T05:54:46.865Z,35.80
2023-01-08T05:55:21.678Z,36.10
2023-01-08T05:55:59.139Z,35.96
2023-01-08T05:56:33.952Z,36.04
2023-01-08T05:57:06.194Z,35.67
2023-01-08T05:57:38.545Z,35.96
2023-01-08T05:58:19.131Z,36.20
2023-01-08T05:58:54.338Z,36.25
2023-01-08T05:59:26.588Z,36.13
2023-01-08T06:00:01.460Z,36.10
2023-01-08T06:00:43.715Z,36.03
2023-01-08T06:01:18.761Z,35.93
2023-01-08T06:01:51.111Z,36.10
2023-01-08T06:02:23.398Z,36.20
2023-01-08T06:02:58.337Z,36.60
2023-01-08T06:03:30.597Z,36.29
2023-01-08T06:04:04.097Z,35.82
2023-01-08T06:04:39.045Z,35.76
2023-01-08T06:05:11.346Z,35.96
2023-01-08T06:05:43.590Z,36.04
2023-01-08T06:06:18.837Z,36.01
2023-01-08T06:06:51.091Z,35.88
2023-01-08T06:07:23.350Z,35.61
2023-01-08T06:07:58.208Z,35.86
2023-01-08T06:08:31.068Z,36.14
2023-01-08T06:09:03.285Z,36.31
2023-01-08T06:09:38.171Z,36.64
2023-01-08T06:10:10.542Z,36.54
2023-01-08T06:10:42.767Z,36.59
2023-01-08T06:11:17.625Z,36.13
2023-01-08T06:11:49.840Z,36.45
2023-01-08T06:12:22.108Z,36.19
2023-01-08T06:12:57.116Z,36.22
2023-01-08T06:13:32.076Z,36.10
2023-01-08T06:14:06.937Z,36.06
2023-01-08T06:14:39.181Z,36.42
2023-01-08T06:15:12.981Z,36.37
2023-01-08T06:15:47.822Z,36.54
2023-01-08T06:16:21.098Z,36.43
2023-01-08T06:16:53.390Z,36.99
2023-01-08T06:17:28.248Z,36.60
2023-01-08T06:18:02.811Z,36.59
2023-01-08T06:18:35.344Z,36.69
2023-01-08T06:19:10.192Z,36.33
2023-01-08T06:19:42.496Z,36.28
2023-01-08T06:20:14.758Z,36.62
2023-01-08T06:20:49.616Z,36.29
2023-01-08T06:21:21.848Z,36.57
2023-01-08T06:21:54.087Z,36.54
2023-01-08T06:22:29.183Z,36.25
2023-01-08T06:23:01.443Z,36.46
2023-01-08T06:23:36.336Z,36.76
2023-01-08T06:24:08.762Z,36.41
2023-01-08T06:24:40.973Z,36.45
2023-01-08T06:25:15.797Z,36.39
2023-01-08T06:25:52.956Z,36.59
2023-01-08T06:26:25.211Z,36.23
2023-01-08T06:27:00.054Z,36.25
2023-01-08T06:27:32.298Z,36.23
2023-01-08T06:28:05.272Z,36.66
2023-01-08T06:28:42.688Z,36.66
2023-01-08T06:29:14.927Z,36.59
2023-01-08T06:29:47.150Z,36.48
2023-01-08T06:30:22.190Z,36.49
2023-01-08T06:30:54.476Z,36.21
2023-01-08T06:31:29.538Z,36.30
2023-01-08T06:32:01.943Z,36.52
2023-01-08T06:32:34.167Z,36.38
2023-01-08T06:33:09.003Z,36.43
2023-01-08T06:33:41.254Z,36.81
2023-01-08T06:34:13.706Z,37.05
2023-01-08T06:34:48.531Z,37.13
2023-01-08T06:35:20.760Z,36.77
2023-01-08T06:35:55.580Z,36.78
2023-01-08T06:36:27.837Z,37.15
2023-01-08T06:37:00.088Z,36.78
2023-01-08T06:37:34.905Z,37.20
2023-01-08T06:38:07.159Z,37.22
2023-01-08T06:38:39.424Z,37.18
2023-01-08T06:39:15.075Z,37.04
2023-01-08T06:39:47.416Z,36.97
2023-01-08T06:40:19.727Z,37.23
2023-01-08T06:40:54.543Z,37.12
2023-01-08T06:41:26.797Z,37.17
2023-01-08T06:41:59.111Z,37.14
2023-01-08T06:42:33.927Z,37.06
2023-01-08T06:43:06.155Z,37.30
2023-01-08T06:43:43.625Z,37.13
2023-01-08T06:44:15.883Z,37.14
2023-01-08T06:44:48.105Z,37.10
2023-01-08T06:45:22.923Z,37.17
2023-01-08T06:45:55.475Z,37.00
2023-01-08T06:46:27.719Z,36.82
2023-01-08T06:47:02.875Z,37.08
2023-01-08T06:47:35.114Z,36.88
2023-01-08T06:48:07.966Z,36.95
2023-01-08T06:48:42.795Z,36.98
2023-01-08T06:49:15.180Z,36.98
2023-01-08T06:49:47.552Z,37.39
2023-01-08T06:50:22.440Z,37.22
2023-01-08T06:50:54.674Z,37.54
2023-01-08T06:51:26.900Z,37.49
2023-01-08T06:52:01.721Z,37.52
2023-01-08T06:52:34.241Z,37.46
2023-01-08T06:53:06.511Z,37.57
2023-01-08T06:53:41.368Z,37.29
2023-01-08T06:54:13.835Z,37.25
2023-01-08T06:54:46.100Z,37.67
2023-01-08T06:55:20.915Z,37.48
2023-01-08T06:55:57.083Z,37.36
2023-01-08T06:56:29.313Z,37.60
2023-01-08T06:57:04.155Z,37.52
2023-01-08T06:57:36.407Z,37.56
2023-01-08T06:58:10.542Z,37.61
2023-01-08T06:58:47.978Z,37.37
2023-01-08T06:59:20.209Z,37.46
2023-01-08T06:59:55.036Z,37.86
2023-01-08T07:00:27.468Z,37.60
2023-01-08T07:00:59.748Z,37.46
2023-01-08T07:01:34.631Z,37.68
2023-01-08T07:02:07.004Z,37.95
2023-01-08T07:02:39.566Z,37.77
2023-01-08T07:03:14.515Z,37.65
2023-01-08T07:03:46.843Z,37.97
2023-01-08T07:04:19.555Z,38.02
2023-01-08T07:04:54.361Z,37.73
2023-01-08T07:05:26.628Z,37.54
2023-01-08T07:05:58.982Z,38.12
2023-01-08T07:06:33.839Z,38.25
2023-01-08T07:07:06.327Z,38.09
2023-01-08T07:07:38.544Z,37.46
2023-01-08T07:08:14.199Z,37.75
2023-01-08T07:08:46.686Z,37.63
2023-01-08T07:09:18.912Z,38.01
2023-01-08T07:09:53.736Z,38.08
2023-01-08T07:10:26.871Z,37.94
2023-01-08T07:11:02.781Z,38.02
2023-01-08T07:11:37.597Z,38.34
2023-01-08T07:12:12.266Z,38.43
2023-01-08T07:12:44.477Z,38.12
2023-01-08T07:13:19.309Z,38.17
2023-01-08T07:13:55.701Z,38.49
2023-01-08T07:14:30.522Z,38.52
2023-01-08T07:15:02.870Z,38.44
2023-01-08T07:15:36.313Z,38.01
2023-01-08T07:16:12.370Z,38.05
2023-01-08T07:16:44.635Z,37.76
2023-01-08T07:17:16.892Z,37.98
2023-01-08T07:17:51.756Z,37.85
2023-01-08T07:18:24.002Z,37.49
2023-01-08T07:18:56.248Z,37.44
2023-01-08T07:19:31.624Z,37.63
2023-01-08T07:20:04.668Z,38.00
2023-01-08T07:20:37.203Z,37.67
2023-01-08T07:21:12.302Z,38.02
2023-01-08T07:21:44.578Z,37.85
2023-01-08T07:22:20.297Z,37.98